sensor_id;sensor_type;location;lat;lon;timestamp;pressure;altitude;pressure_sealevel;temperature;humidity
19150;BME280;9707;49.158;8.632;2023-06-14T00:00:09;99892.81;;;28.18;26.76
19150;BME280;9707;49.158;8.632;2023-06-14T00:02:35;99889.38;;;28.16;26.91
19150;BME280;9707;49.158;8.632;2023-06-14T00:05:00;99899.69;;;28.14;26.87
19150;BME280;9707;49.158;8.632;2023-06-14T00:07:36;99901.75;;;28.12;26.77
19150;BME280;9707;49.158;8.632;2023-06-14T00:10:03;99891.16;;;28.09;26.90
19150;BME280;9707;49.158;8.632;2023-06-14T00:12:29;99895.97;;;28.07;26.99
19150;BME280;9707;49.158;8.632;2023-06-14T00:14:54;99897.19;;;28.04;26.90
19150;BME280;9707;49.158;8.632;2023-06-14T00:17:19;99891.91;;;28.03;27.15
19150;BME280;9707;49.158;8.632;2023-06-14T00:19:45;99892.94;;;28.02;27.04
19150;BME280;9707;49.158;8.632;2023-06-14T00:22:11;99889.50;;;28.00;27.39
19150;BME280;9707;49.158;8.632;2023-06-14T00:24:37;99891.59;;;27.98;27.07
19150;BME280;9707;49.158;8.632;2023-06-14T00:27:02;99886.47;;;27.95;27.31
19150;BME280;9707;49.158;8.632;2023-06-14T00:29:27;99893.16;;;27.92;27.08
19150;BME280;9707;49.158;8.632;2023-06-14T00:31:53;99882.59;;;27.89;27.43
19150;BME280;9707;49.158;8.632;2023-06-14T00:34:18;99889.06;;;27.88;27.45
19150;BME280;9707;49.158;8.632;2023-06-14T00:36:43;99885.50;;;27.88;26.99
19150;BME280;9707;49.158;8.632;2023-06-14T00:39:08;99873.84;;;27.86;27.12
19150;BME280;9707;49.158;8.632;2023-06-14T00:41:34;99882.06;;;27.86;27.28
19150;BME280;9707;49.158;8.632;2023-06-14T00:44:00;99888.75;;;27.83;27.08
19150;BME280;9707;49.158;8.632;2023-06-14T00:46:25;99871.84;;;27.80;27.23
19150;BME280;9707;49.158;8.632;2023-06-14T00:48:51;99889.31;;;27.79;27.33
19150;BME280;9707;49.158;8.632;2023-06-14T00:51:16;99887.75;;;27.76;27.36
19150;BME280;9707;49.158;8.632;2023-06-14T00:53:42;99886.22;;;27.74;27.24
19150;BME280;9707;49.158;8.632;2023-06-14T00:56:11;99880.09;;;27.72;27.11
19150;BME280;9707;49.158;8.632;2023-06-14T00:58:38;99883.00;;;27.70;27.37
19150;BME280;9707;49.158;8.632;2023-06-14T01:01:03;99883.19;;;27.69;27.33
19150;BME280;9707;49.158;8.632;2023-06-14T01:03:29;99885.25;;;27.67;27.85
19150;BME280;9707;49.158;8.632;2023-06-14T01:08:47;99886.28;;;27.66;26.96
19150;BME280;9707;49.158;8.632;2023-06-14T01:11:22;99892.97;;;27.63;27.14
19150;BME280;9707;49.158;8.632;2023-06-14T01:13:53;99890.25;;;27.63;27.40
19150;BME280;9707;49.158;8.632;2023-06-14T01:16:19;99893.16;;;27.62;27.34
19150;BME280;9707;49.158;8.632;2023-06-14T01:18:44;99896.72;;;27.62;27.14
19150;BME280;9707;49.158;8.632;2023-06-14T01:21:23;99894.84;;;27.63;27.14
19150;BME280;9707;49.158;8.632;2023-06-14T01:23:49;99886.66;;;27.63;27.91
19150;BME280;9707;49.158;8.632;2023-06-14T01:26:19;99890.03;;;27.65;27.69
19150;BME280;9707;49.158;8.632;2023-06-14T01:28:44;99887.13;;;27.66;27.67
19150;BME280;9707;49.158;8.632;2023-06-14T01:31:16;99894.31;;;27.67;27.88
19150;BME280;9707;49.158;8.632;2023-06-14T01:33:42;99890.56;;;27.68;28.03
19150;BME280;9707;49.158;8.632;2023-06-14T01:36:09;99890.56;;;27.68;27.98
19150;BME280;9707;49.158;8.632;2023-06-14T01:38:36;99894.81;;;27.71;28.33
19150;BME280;9707;49.158;8.632;2023-06-14T01:41:01;99888.47;;;27.70;28.14
19150;BME280;9707;49.158;8.632;2023-06-14T01:43:29;99894.63;;;27.72;28.08
19150;BME280;9707;49.158;8.632;2023-06-14T01:45:56;99897.34;;;27.72;28.12
19150;BME280;9707;49.158;8.632;2023-06-14T01:48:23;99903.69;;;27.73;28.90
19150;BME280;9707;49.158;8.632;2023-06-14T01:50:49;99900.78;;;27.74;29.01
19150;BME280;9707;49.158;8.632;2023-06-14T01:53:15;99899.56;;;27.77;29.05
19150;BME280;9707;49.158;8.632;2023-06-14T01:55:40;99896.84;;;27.77;28.68
19150;BME280;9707;49.158;8.632;2023-06-14T01:58:08;99901.25;;;27.78;28.60
19150;BME280;9707;49.158;8.632;2023-06-14T02:00:34;99898.53;;;27.78;28.34
19150;BME280;9707;49.158;8.632;2023-06-14T02:02:59;99905.88;;;27.77;28.29
19150;BME280;9707;49.158;8.632;2023-06-14T02:05:25;99898.53;;;27.78;28.88
19150;BME280;9707;49.158;8.632;2023-06-14T02:07:50;99895.78;;;27.78;28.56
19150;BME280;9707;49.158;8.632;2023-06-14T02:10:15;99887.59;;;27.78;29.20
19150;BME280;9707;49.158;8.632;2023-06-14T02:12:43;99892.91;;;27.79;28.13
19150;BME280;9707;49.158;8.632;2023-06-14T02:15:08;99892.19;;;27.77;28.09
19150;BME280;9707;49.158;8.632;2023-06-14T02:17:35;99900.41;;;27.77;27.88
19150;BME280;9707;49.158;8.632;2023-06-14T02:20:00;99903.34;;;27.76;28.27
19150;BME280;9707;49.158;8.632;2023-06-14T02:22:25;99901.63;;;27.75;27.93
19150;BME280;9707;49.158;8.632;2023-06-14T02:24:51;99896.13;;;27.75;28.02
19150;BME280;9707;49.158;8.632;2023-06-14T02:27:16;99900.78;;;27.74;28.49
19150;BME280;9707;49.158;8.632;2023-06-14T02:29:42;99897.00;;;27.75;28.33
19150;BME280;9707;49.158;8.632;2023-06-14T02:32:07;99898.88;;;27.75;27.79
19150;BME280;9707;49.158;8.632;2023-06-14T02:34:33;99902.47;;;27.75;28.60
19150;BME280;9707;49.158;8.632;2023-06-14T02:36:59;99907.09;;;27.75;27.75
19150;BME280;9707;49.158;8.632;2023-06-14T02:39:24;99905.38;;;27.74;27.69
19150;BME280;9707;49.158;8.632;2023-06-14T02:41:49;99910.19;;;27.72;27.86
19150;BME280;9707;49.158;8.632;2023-06-14T02:44:17;99910.19;;;27.72;27.69
19150;BME280;9707;49.158;8.632;2023-06-14T02:46:42;99914.16;;;27.69;27.58
19150;BME280;9707;49.158;8.632;2023-06-14T02:49:09;99914.31;;;27.68;27.45
19150;BME280;9707;49.158;8.632;2023-06-14T02:51:34;99914.66;;;27.65;27.25
19150;BME280;9707;49.158;8.632;2023-06-14T02:53:59;99912.13;;;27.63;26.99
19150;BME280;9707;49.158;8.632;2023-06-14T02:56:24;99914.34;;;27.60;26.62
19150;BME280;9707;49.158;8.632;2023-06-14T02:58:51;99922.75;;;27.58;26.51
19150;BME280;9707;49.158;8.632;2023-06-14T03:01:16;99923.97;;;27.56;26.38
19150;BME280;9707;49.158;8.632;2023-06-14T03:03:42;99926.19;;;27.52;26.19
19150;BME280;9707;49.158;8.632;2023-06-14T03:06:07;99936.63;;;27.49;26.38
19150;BME280;9707;49.158;8.632;2023-06-14T03:08:34;99934.44;;;27.44;26.36
19150;BME280;9707;49.158;8.632;2023-06-14T03:11:04;99931.22;;;27.41;26.34
19150;BME280;9707;49.158;8.632;2023-06-14T03:13:30;99936.88;;;27.39;26.65
19150;BME280;9707;49.158;8.632;2023-06-14T03:15:57;99929.00;;;27.36;26.52
19150;BME280;9707;49.158;8.632;2023-06-14T03:18:22;99934.84;;;27.33;26.60
19150;BME280;9707;49.158;8.632;2023-06-14T03:20:48;99936.03;;;27.31;27.11
19150;BME280;9707;49.158;8.632;2023-06-14T03:23:13;99936.38;;;27.28;26.82
19150;BME280;9707;49.158;8.632;2023-06-14T03:25:38;99933.00;;;27.26;27.06
19150;BME280;9707;49.158;8.632;2023-06-14T03:28:05;99941.34;;;27.24;27.08
19150;BME280;9707;49.158;8.632;2023-06-14T03:30:31;99942.41;;;27.23;26.94
19150;BME280;9707;49.158;8.632;2023-06-14T03:32:57;99948.03;;;27.22;27.00
19150;BME280;9707;49.158;8.632;2023-06-14T03:35:23;99946.50;;;27.19;26.74
19150;BME280;9707;49.158;8.632;2023-06-14T03:37:49;99952.13;;;27.18;27.12
19150;BME280;9707;49.158;8.632;2023-06-14T03:40:16;99959.66;;;27.16;27.50
19150;BME280;9707;49.158;8.632;2023-06-14T03:42:41;99966.13;;;27.15;27.05
19150;BME280;9707;49.158;8.632;2023-06-14T03:45:07;99966.31;;;27.13;27.07
19150;BME280;9707;49.158;8.632;2023-06-14T03:47:34;99968.34;;;27.11;27.04
19150;BME280;9707;49.158;8.632;2023-06-14T03:50:00;99965.78;;;27.10;27.37
19150;BME280;9707;49.158;8.632;2023-06-14T03:52:26;99963.25;;;27.08;27.40
19150;BME280;9707;49.158;8.632;2023-06-14T03:54:52;99968.88;;;27.07;27.41
19150;BME280;9707;49.158;8.632;2023-06-14T03:57:18;99974.53;;;27.05;27.30
19150;BME280;9707;49.158;8.632;2023-06-14T03:59:43;99978.47;;;27.03;27.44
19150;BME280;9707;49.158;8.632;2023-06-14T04:02:08;99986.66;;;27.03;27.34
19150;BME280;9707;49.158;8.632;2023-06-14T04:04:34;99983.25;;;27.01;27.37
19150;BME280;9707;49.158;8.632;2023-06-14T04:07:00;99985.13;;;27.00;27.42
19150;BME280;9707;49.158;8.632;2023-06-14T04:09:26;99987.19;;;26.98;27.66
19150;BME280;9707;49.158;8.632;2023-06-14T04:11:52;99994.53;;;26.98;27.66
19150;BME280;9707;49.158;8.632;2023-06-14T04:14:19;99991.13;;;26.96;28.03
19150;BME280;9707;49.158;8.632;2023-06-14T04:16:46;99988.38;;;26.96;27.73
19150;BME280;9707;49.158;8.632;2023-06-14T04:19:11;100004.09;;;26.94;27.82
19150;BME280;9707;49.158;8.632;2023-06-14T04:21:36;100002.38;;;26.93;28.00
19150;BME280;9707;49.158;8.632;2023-06-14T04:24:02;100007.03;;;26.92;27.91
19150;BME280;9707;49.158;8.632;2023-06-14T04:26:27;100018.13;;;26.91;27.91
19150;BME280;9707;49.158;8.632;2023-06-14T04:28:55;100010.75;;;26.91;27.75
19150;BME280;9707;49.158;8.632;2023-06-14T04:31:22;100020.00;;;26.90;27.69
19150;BME280;9707;49.158;8.632;2023-06-14T04:33:50;100020.16;;;26.89;27.91
19150;BME280;9707;49.158;8.632;2023-06-14T04:36:15;100027.53;;;26.88;27.84
19150;BME280;9707;49.158;8.632;2023-06-14T04:38:42;100019.47;;;26.87;28.09
19150;BME280;9707;49.158;8.632;2023-06-14T04:41:10;100023.25;;;26.86;27.98
19150;BME280;9707;49.158;8.632;2023-06-14T04:43:36;100028.72;;;26.86;28.28
19150;BME280;9707;49.158;8.632;2023-06-14T04:46:03;100030.75;;;26.84;28.63
19150;BME280;9707;49.158;8.632;2023-06-14T04:48:31;100033.31;;;26.85;28.14
19150;BME280;9707;49.158;8.632;2023-06-14T04:50:56;100029.75;;;26.85;28.35
19150;BME280;9707;49.158;8.632;2023-06-14T04:53:21;100034.19;;;26.86;28.44
19150;BME280;9707;49.158;8.632;2023-06-14T04:55:48;100037.94;;;26.85;28.54
19150;BME280;9707;49.158;8.632;2023-06-14T04:58:13;100044.25;;;26.85;28.58
19150;BME280;9707;49.158;8.632;2023-06-14T05:00:39;100042.53;;;26.84;28.37
19150;BME280;9707;49.158;8.632;2023-06-14T05:03:04;100048.00;;;26.84;28.62
19150;BME280;9707;49.158;8.632;2023-06-14T05:05:31;100049.72;;;26.85;28.93
19150;BME280;9707;49.158;8.632;2023-06-14T05:07:59;100048.00;;;26.84;28.80
19150;BME280;9707;49.158;8.632;2023-06-14T05:10:24;100045.28;;;26.84;28.59
19150;BME280;9707;49.158;8.632;2023-06-14T05:12:50;100044.41;;;26.84;28.72
19150;BME280;9707;49.158;8.632;2023-06-14T05:15:15;100050.91;;;26.83;28.69
19150;BME280;9707;49.158;8.632;2023-06-14T05:17:41;100043.75;;;26.82;29.01
19150;BME280;9707;49.158;8.632;2023-06-14T05:20:07;100051.94;;;26.82;28.85
19150;BME280;9707;49.158;8.632;2023-06-14T05:22:32;100049.22;;;26.82;28.77
19150;BME280;9707;49.158;8.632;2023-06-14T05:24:57;100055.53;;;26.82;28.95
19150;BME280;9707;49.158;8.632;2023-06-14T05:27:22;100055.53;;;26.82;28.65
19150;BME280;9707;49.158;8.632;2023-06-14T05:29:49;100057.41;;;26.82;28.65
19150;BME280;9707;49.158;8.632;2023-06-14T05:32:15;100054.66;;;26.82;28.89
19150;BME280;9707;49.158;8.632;2023-06-14T05:34:41;100057.41;;;26.82;28.87
19150;BME280;9707;49.158;8.632;2023-06-14T05:37:07;100065.59;;;26.82;28.46
19150;BME280;9707;49.158;8.632;2023-06-14T05:39:32;100065.59;;;26.82;29.13
19150;BME280;9707;49.158;8.632;2023-06-14T05:41:57;100062.88;;;26.82;28.91
19150;BME280;9707;49.158;8.632;2023-06-14T05:44:23;100073.63;;;26.83;28.45
19150;BME280;9707;49.158;8.632;2023-06-14T05:46:48;100077.22;;;26.84;28.59
19150;BME280;9707;49.158;8.632;2023-06-14T05:49:13;100074.47;;;26.84;29.28
19150;BME280;9707;49.158;8.632;2023-06-14T05:51:38;100079.78;;;26.85;28.89
19150;BME280;9707;49.158;8.632;2023-06-14T05:54:04;100077.75;;;26.87;29.02
19150;BME280;9707;49.158;8.632;2023-06-14T05:56:29;100077.56;;;26.89;29.61
19150;BME280;9707;49.158;8.632;2023-06-14T05:58:54;100078.25;;;26.91;29.01
19150;BME280;9707;49.158;8.632;2023-06-14T06:01:20;100071.75;;;26.92;28.83
19150;BME280;9707;49.158;8.632;2023-06-14T06:03:45;100075.16;;;26.94;28.74
19150;BME280;9707;49.158;8.632;2023-06-14T06:06:11;100078.44;;;26.97;28.92
19150;BME280;9707;49.158;8.632;2023-06-14T06:08:36;100083.72;;;26.99;29.10
19150;BME280;9707;49.158;8.632;2023-06-14T06:11:02;100092.63;;;27.01;28.95
19150;BME280;9707;49.158;8.632;2023-06-14T06:13:27;100084.06;;;27.04;28.28
19150;BME280;9707;49.158;8.632;2023-06-14T06:15:52;100082.19;;;27.04;28.08
19150;BME280;9707;49.158;8.632;2023-06-14T06:18:17;100085.78;;;27.05;27.82
19150;BME280;9707;49.158;8.632;2023-06-14T06:20:43;100086.78;;;27.04;27.61
19150;BME280;9707;49.158;8.632;2023-06-14T06:23:09;100085.09;;;27.03;27.80
19150;BME280;9707;49.158;8.632;2023-06-14T06:25:35;100079.63;;;27.03;27.73
19150;BME280;9707;49.158;8.632;2023-06-14T06:28:00;100082.19;;;27.04;27.62
19150;BME280;9707;49.158;8.632;2023-06-14T06:30:26;100095.69;;;27.06;27.72
19150;BME280;9707;49.158;8.632;2023-06-14T06:32:51;100090.22;;;27.06;27.54
19150;BME280;9707;49.158;8.632;2023-06-14T06:35:17;100100.13;;;27.07;27.22
19150;BME280;9707;49.158;8.632;2023-06-14T06:37:42;100095.69;;;27.06;27.34
19150;BME280;9707;49.158;8.632;2023-06-14T06:40:08;100094.50;;;27.08;27.30
19150;BME280;9707;49.158;8.632;2023-06-14T06:42:34;100096.19;;;27.09;27.80
19150;BME280;9707;49.158;8.632;2023-06-14T06:45:00;100099.44;;;27.13;28.57
19150;BME280;9707;49.158;8.632;2023-06-14T06:47:25;100096.19;;;27.17;27.87
19150;BME280;9707;49.158;8.632;2023-06-14T06:49:51;100108.00;;;27.18;28.19
19150;BME280;9707;49.158;8.632;2023-06-14T06:52:16;100109.53;;;27.20;27.30
19150;BME280;9707;49.158;8.632;2023-06-14T06:54:41;100109.53;;;27.20;27.90
19150;BME280;9707;49.158;8.632;2023-06-14T06:57:07;100108.34;;;27.23;28.07
19150;BME280;9707;49.158;8.632;2023-06-14T06:59:33;100109.88;;;27.25;27.98
19150;BME280;9707;49.158;8.632;2023-06-14T07:01:58;100113.13;;;27.29;28.29
19150;BME280;9707;49.158;8.632;2023-06-14T07:04:24;100112.78;;;27.32;28.64
19150;BME280;9707;49.158;8.632;2023-06-14T07:06:49;100112.44;;;27.35;28.76
19150;BME280;9707;49.158;8.632;2023-06-14T07:09:14;100119.44;;;27.37;27.58
19150;BME280;9707;49.158;8.632;2023-06-14T07:11:42;100116.91;;;27.36;27.20
19150;BME280;9707;49.158;8.632;2023-06-14T07:14:07;100127.66;;;27.37;27.21
19150;BME280;9707;49.158;8.632;2023-06-14T07:16:33;100127.66;;;27.37;27.89
19150;BME280;9707;49.158;8.632;2023-06-14T07:18:58;100126.44;;;27.40;27.53
19150;BME280;9707;49.158;8.632;2023-06-14T07:21:23;100131.91;;;27.40;27.02
19150;BME280;9707;49.158;8.632;2023-06-14T07:23:50;100126.44;;;27.40;26.87
19150;BME280;9707;49.158;8.632;2023-06-14T07:26:16;100130.91;;;27.41;26.59
19150;BME280;9707;49.158;8.632;2023-06-14T07:28:41;100135.34;;;27.42;27.10
19150;BME280;9707;49.158;8.632;2023-06-14T07:31:09;100126.13;;;27.43;27.17
19150;BME280;9707;49.158;8.632;2023-06-14T07:33:35;100128.69;;;27.44;27.46
19150;BME280;9707;49.158;8.632;2023-06-14T07:36:00;100131.06;;;27.47;27.92
19150;BME280;9707;49.158;8.632;2023-06-14T07:38:25;100131.59;;;27.51;27.28
19150;BME280;9707;49.158;8.632;2023-06-14T07:40:51;100137.06;;;27.51;27.16
19150;BME280;9707;49.158;8.632;2023-06-14T07:43:16;100137.72;;;27.53;27.86
19150;BME280;9707;49.158;8.632;2023-06-14T07:45:41;100142.00;;;27.55;27.08
19150;BME280;9707;49.158;8.632;2023-06-14T07:48:07;100135.50;;;27.56;27.09
19150;BME280;9707;49.158;8.632;2023-06-14T07:50:32;100144.41;;;27.58;27.35
19150;BME280;9707;49.158;8.632;2023-06-14T07:52:57;100144.03;;;27.61;27.40
19150;BME280;9707;49.158;8.632;2023-06-14T07:55:23;100148.31;;;27.64;27.47
19150;BME280;9707;49.158;8.632;2023-06-14T07:57:48;100140.81;;;27.66;27.21
19150;BME280;9707;49.158;8.632;2023-06-14T08:00:13;100140.81;;;27.66;27.66
19150;BME280;9707;49.158;8.632;2023-06-14T08:02:43;100138.56;;;27.69;26.85
19150;BME280;9707;49.158;8.632;2023-06-14T08:05:10;100134.78;;;27.70;27.03
19150;BME280;9707;49.158;8.632;2023-06-14T08:07:36;100135.66;;;27.71;27.20
19150;BME280;9707;49.158;8.632;2023-06-14T08:10:01;100133.59;;;27.73;27.41
19150;BME280;9707;49.158;8.632;2023-06-14T08:12:29;100132.22;;;27.77;27.24
19150;BME280;9707;49.158;8.632;2023-06-14T08:14:55;100140.09;;;27.80;27.20
19150;BME280;9707;49.158;8.632;2023-06-14T08:17:20;100140.09;;;27.80;27.07
19150;BME280;9707;49.158;8.632;2023-06-14T08:19:45;100134.44;;;27.81;27.45
19150;BME280;9707;49.158;8.632;2023-06-14T08:22:10;100133.41;;;27.82;27.50
19150;BME280;9707;49.158;8.632;2023-06-14T08:24:37;100142.13;;;27.86;26.96
19150;BME280;9707;49.158;8.632;2023-06-14T08:27:02;100145.72;;;27.86;27.06
19150;BME280;9707;49.158;8.632;2023-06-14T08:29:28;100142.81;;;27.88;27.05
19150;BME280;9707;49.158;8.632;2023-06-14T08:31:56;100139.06;;;27.89;26.98
19150;BME280;9707;49.158;8.632;2023-06-14T08:34:21;100139.72;;;27.91;26.73
19150;BME280;9707;49.158;8.632;2023-06-14T08:36:48;100136.97;;;27.91;26.85
19150;BME280;9707;49.158;8.632;2023-06-14T08:39:14;100140.25;;;27.94;26.84
19150;BME280;9707;49.158;8.632;2023-06-14T08:41:39;100141.78;;;27.97;26.62
19150;BME280;9707;49.158;8.632;2023-06-14T08:44:04;100138.00;;;27.98;26.37
19150;BME280;9707;49.158;8.632;2023-06-14T08:46:32;100142.44;;;27.99;26.62
19150;BME280;9707;49.158;8.632;2023-06-14T08:48:59;100149.78;;;27.98;26.04
19150;BME280;9707;49.158;8.632;2023-06-14T08:51:25;100148.78;;;27.99;26.05
19150;BME280;9707;49.158;8.632;2023-06-14T08:53:54;100152.38;;;28.00;25.34
19150;BME280;9707;49.158;8.632;2023-06-14T08:56:26;100146.88;;;28.00;25.77
19150;BME280;9707;49.158;8.632;2023-06-14T08:58:53;100154.06;;;28.01;25.65
19150;BME280;9707;49.158;8.632;2023-06-14T09:01:19;100149.47;;;28.01;25.37
19150;BME280;9707;49.158;8.632;2023-06-14T09:03:46;100157.50;;;28.03;25.28
19150;BME280;9707;49.158;8.632;2023-06-14T09:06:13;100157.50;;;28.03;25.47
19150;BME280;9707;49.158;8.632;2023-06-14T09:08:42;100157.34;;;28.04;25.12
19150;BME280;9707;49.158;8.632;2023-06-14T09:11:11;100159.88;;;28.06;25.36
19150;BME280;9707;49.158;8.632;2023-06-14T09:13:37;100153.38;;;28.07;25.52
19150;BME280;9707;49.158;8.632;2023-06-14T09:16:03;100149.63;;;28.08;25.43
19150;BME280;9707;49.158;8.632;2023-06-14T09:18:39;100152.19;;;28.09;25.34
19150;BME280;9707;49.158;8.632;2023-06-14T09:21:08;100144.81;;;28.10;25.43
19150;BME280;9707;49.158;8.632;2023-06-14T09:23:42;100150.09;;;28.11;26.03
19150;BME280;9707;49.158;8.632;2023-06-14T09:26:09;100153.34;;;28.15;25.19
19150;BME280;9707;49.158;8.632;2023-06-14T09:28:35;100148.56;;;28.17;25.32
19150;BME280;9707;49.158;8.632;2023-06-14T09:31:01;100147.53;;;28.18;25.25
19150;BME280;9707;49.158;8.632;2023-06-14T09:33:27;100151.97;;;28.19;25.07
19150;BME280;9707;49.158;8.632;2023-06-14T09:35:55;100152.63;;;28.21;24.73
19150;BME280;9707;49.158;8.632;2023-06-14T09:38:20;100151.63;;;28.22;25.56
19150;BME280;9707;49.158;8.632;2023-06-14T09:40:46;100149.53;;;28.24;25.26
19150;BME280;9707;49.158;8.632;2023-06-14T09:43:11;100133.13;;;28.24;24.72
19150;BME280;9707;49.158;8.632;2023-06-14T09:45:38;100148.34;;;28.26;25.47
19150;BME280;9707;49.158;8.632;2023-06-14T09:48:06;100154.31;;;28.30;24.96
19150;BME280;9707;49.158;8.632;2023-06-14T09:50:32;100146.78;;;28.32;24.37
19150;BME280;9707;49.158;8.632;2023-06-14T09:53:05;100145.75;;;28.33;25.29
19150;BME280;9707;49.158;8.632;2023-06-14T09:55:36;100153.59;;;28.36;24.68
19150;BME280;9707;49.158;8.632;2023-06-14T09:58:04;100148.13;;;28.36;23.81
19150;BME280;9707;49.158;8.632;2023-06-14T10:00:32;100148.97;;;28.36;24.46
19150;BME280;9707;49.158;8.632;2023-06-14T10:03:03;100157.91;;;28.38;24.29
19150;BME280;9707;49.158;8.632;2023-06-14T10:05:35;100157.72;;;28.40;24.63
19150;BME280;9707;49.158;8.632;2023-06-14T10:08:08;100141.97;;;28.42;24.10
19150;BME280;9707;49.158;8.632;2023-06-14T10:10:33;100138.19;;;28.43;24.40
19150;BME280;9707;49.158;8.632;2023-06-14T10:12:59;100143.31;;;28.46;24.72
19150;BME280;9707;49.158;8.632;2023-06-14T10:15:32;100151.19;;;28.49;26.08
19150;BME280;9707;49.158;8.632;2023-06-14T10:18:17;100142.63;;;28.52;26.01
19150;BME280;9707;49.158;8.632;2023-06-14T10:20:53;100132.31;;;28.54;25.75
19150;BME280;9707;49.158;8.632;2023-06-14T10:23:22;100148.22;;;28.58;25.07
19150;BME280;9707;49.158;8.632;2023-06-14T10:25:57;100139.81;;;28.60;25.23
19150;BME280;9707;49.158;8.632;2023-06-14T10:28:23;100148.91;;;28.60;25.14
19150;BME280;9707;49.158;8.632;2023-06-14T10:31:09;100139.47;;;28.63;25.26
19150;BME280;9707;49.158;8.632;2023-06-14T10:33:39;100142.88;;;28.65;25.01
19150;BME280;9707;49.158;8.632;2023-06-14T10:39:06;100135.31;;;28.67;24.71
19150;BME280;9707;49.158;8.632;2023-06-14T10:41:35;100138.72;;;28.69;24.56
19150;BME280;9707;49.158;8.632;2023-06-14T10:44:31;100129.47;;;28.70;24.79
19150;BME280;9707;49.158;8.632;2023-06-14T10:47:00;100130.50;;;28.69;25.79
19150;BME280;9707;49.158;8.632;2023-06-14T10:49:43;100134.41;;;28.74;24.78
19150;BME280;9707;49.158;8.632;2023-06-14T10:52:13;100129.78;;;28.75;25.17
19150;BME280;9707;49.158;8.632;2023-06-14T10:55:05;100132.16;;;28.78;25.93
19150;BME280;9707;49.158;8.632;2023-06-14T10:57:32;100127.34;;;28.80;25.68
19150;BME280;9707;49.158;8.632;2023-06-14T10:59:58;100123.38;;;28.82;26.26
19150;BME280;9707;49.158;8.632;2023-06-14T11:05:04;100132.09;;;28.86;24.87
19150;BME280;9707;49.158;8.632;2023-06-14T11:12:47;100126.09;;;28.90;24.38
19150;BME280;9707;49.158;8.632;2023-06-14T11:15:13;100124.88;;;28.93;24.33
19150;BME280;9707;49.158;8.632;2023-06-14T11:17:39;100128.28;;;28.95;24.36
19150;BME280;9707;49.158;8.632;2023-06-14T11:20:10;100131.72;;;28.97;24.72
19150;BME280;9707;49.158;8.632;2023-06-14T11:22:41;100127.56;;;29.01;25.32
19150;BME280;9707;49.158;8.632;2023-06-14T11:25:11;100116.25;;;29.04;25.36
19150;BME280;9707;49.158;8.632;2023-06-14T11:27:36;100117.94;;;29.05;25.53
19150;BME280;9707;49.158;8.632;2023-06-14T11:30:02;100127.69;;;29.07;25.29
19150;BME280;9707;49.158;8.632;2023-06-14T11:32:27;100114.84;;;29.08;24.38
19150;BME280;9707;49.158;8.632;2023-06-14T11:34:53;100117.38;;;29.09;23.79
19150;BME280;9707;49.158;8.632;2023-06-14T11:37:18;100111.72;;;29.11;24.72
19150;BME280;9707;49.158;8.632;2023-06-14T11:39:44;100126.13;;;29.13;24.33
19150;BME280;9707;49.158;8.632;2023-06-14T11:42:16;100115.81;;;29.15;23.80
19150;BME280;9707;49.158;8.632;2023-06-14T11:44:41;100123.00;;;29.16;23.19
19150;BME280;9707;49.158;8.632;2023-06-14T11:47:06;100124.69;;;29.17;23.27
19150;BME280;9707;49.158;8.632;2023-06-14T11:49:35;100131.03;;;29.17;23.91
19150;BME280;9707;49.158;8.632;2023-06-14T11:52:01;100119.91;;;29.19;24.15
19150;BME280;9707;49.158;8.632;2023-06-14T11:54:26;100132.38;;;29.21;24.77
19150;BME280;9707;49.158;8.632;2023-06-14T11:56:52;100127.56;;;29.23;25.15
19150;BME280;9707;49.158;8.632;2023-06-14T11:59:17;100125.69;;;29.24;24.20
19150;BME280;9707;49.158;8.632;2023-06-14T12:01:43;100120.84;;;29.26;22.42
19150;BME280;9707;49.158;8.632;2023-06-14T12:04:08;100122.56;;;29.27;22.84
19150;BME280;9707;49.158;8.632;2023-06-14T12:06:33;100114.13;;;29.28;22.89
19150;BME280;9707;49.158;8.632;2023-06-14T12:09:06;100119.44;;;29.30;22.01
19150;BME280;9707;49.158;8.632;2023-06-14T12:11:43;100114.63;;;29.32;22.62
19150;BME280;9707;49.158;8.632;2023-06-14T12:14:08;100120.97;;;29.32;22.88
19150;BME280;9707;49.158;8.632;2023-06-14T12:16:37;100121.81;;;29.33;22.36
19150;BME280;9707;49.158;8.632;2023-06-14T12:19:29;100124.38;;;29.34;23.12
19150;BME280;9707;49.158;8.632;2023-06-14T12:21:54;100115.97;;;29.36;22.83
19150;BME280;9707;49.158;8.632;2023-06-14T12:24:19;100119.34;;;29.38;22.73
19150;BME280;9707;49.158;8.632;2023-06-14T12:26:44;100111.81;;;29.40;24.78
19150;BME280;9707;49.158;8.632;2023-06-14T12:29:10;100116.25;;;29.41;22.97
19150;BME280;9707;49.158;8.632;2023-06-14T12:31:37;100116.06;;;29.42;23.17
19150;BME280;9707;49.158;8.632;2023-06-14T12:34:03;100117.78;;;29.43;22.10
19150;BME280;9707;49.158;8.632;2023-06-14T12:36:28;100109.38;;;29.45;22.09
19150;BME280;9707;49.158;8.632;2023-06-14T12:38:54;100113.81;;;29.46;22.07
19150;BME280;9707;49.158;8.632;2023-06-14T12:41:20;100100.09;;;29.46;22.09
19150;BME280;9707;49.158;8.632;2023-06-14T12:43:47;100103.47;;;29.48;21.82
19150;BME280;9707;49.158;8.632;2023-06-14T12:46:12;100109.66;;;29.50;22.31
19150;BME280;9707;49.158;8.632;2023-06-14T12:48:37;100102.25;;;29.50;21.51
19150;BME280;9707;49.158;8.632;2023-06-14T12:51:03;100101.03;;;29.53;21.83
19150;BME280;9707;49.158;8.632;2023-06-14T12:53:28;100105.31;;;29.55;22.87
19150;BME280;9707;49.158;8.632;2023-06-14T12:55:53;100108.75;;;29.57;22.83
19150;BME280;9707;49.158;8.632;2023-06-14T12:58:19;100114.06;;;29.59;22.25
19150;BME280;9707;49.158;8.632;2023-06-14T13:00:45;100110.94;;;29.62;24.04
19150;BME280;9707;49.158;8.632;2023-06-14T13:03:10;100112.63;;;29.63;21.92
19150;BME280;9707;49.158;8.632;2023-06-14T13:05:36;100114.34;;;29.64;21.49
19150;BME280;9707;49.158;8.632;2023-06-14T13:08:02;100116.06;;;29.65;22.21
19150;BME280;9707;49.158;8.632;2023-06-14T13:10:28;100117.75;;;29.66;21.85
19150;BME280;9707;49.158;8.632;2023-06-14T13:12:53;100116.72;;;29.67;22.16